createdAt,value
2023-08-06T00:01:01.226Z,3.40
2023-08-06T00:03:28.512Z,3.10
2023-08-06T00:05:55.696Z,3.10
2023-08-06T00:08:29.172Z,2.92
2023-08-06T00:10:56.577Z,2.40
2023-08-06T00:13:30.472Z,2.67
2023-08-06T00:15:57.793Z,2.17
2023-08-06T00:18:24.964Z,1.95
2023-08-06T00:20:58.179Z,1.77
2023-08-06T00:23:34.619Z,2.53
2023-08-06T00:26:08.170Z,1.88
2023-08-06T00:28:35.528Z,2.47
2023-08-06T00:31:09.309Z,2.72
2023-08-06T00:33:36.581Z,2.67
2023-08-06T00:36:03.818Z,2.95
2023-08-06T00:38:37.342Z,2.80
2023-08-06T00:41:04.562Z,2.97
2023-08-06T00:43:51.194Z,2.72
2023-08-06T00:46:25.473Z,3.08
2023-08-06T00:48:52.813Z,2.92
2023-08-06T00:51:20.766Z,3.72
2023-08-06T00:53:55.173Z,3.00
2023-08-06T00:56:22.508Z,2.40
2023-08-06T00:58:56.400Z,2.88
2023-08-06T01:01:23.713Z,2.70
2023-08-06T01:03:50.905Z,2.97
2023-08-06T01:06:28.329Z,3.08
2023-08-06T01:08:57.613Z,2.70
2023-08-06T01:11:27.741Z,3.83
2023-08-06T01:14:08.184Z,2.85
2023-08-06T01:16:42.499Z,2.90
2023-08-06T01:19:26.186Z,2.20
2023-08-06T01:21:53.676Z,2.33
2023-08-06T01:24:27.311Z,2.92
2023-08-06T01:27:06.037Z,5.40
2023-08-06T01:29:46.355Z,3.47
2023-08-06T01:32:13.842Z,3.80
2023-08-06T01:34:42.288Z,3.45
2023-08-06T01:37:16.238Z,3.10
2023-08-06T01:39:46.544Z,2.88
2023-08-06T01:42:20.351Z,2.92
2023-08-06T01:44:54.177Z,3.38
2023-08-06T01:47:28.370Z,3.42
2023-08-06T01:49:55.675Z,4.10
2023-08-06T01:52:22.835Z,3.50
2023-08-06T01:54:56.254Z,2.65
2023-08-06T01:57:30.198Z,2.42
2023-08-06T02:00:04.191Z,1.90
2023-08-06T02:02:31.395Z,2.50
2023-08-06T02:05:06.224Z,3.15
2023-08-06T02:07:40.209Z,2.70
2023-08-06T02:10:07.674Z,3.90
2023-08-06T02:12:41.387Z,3.03
2023-08-06T02:15:08.655Z,2.92
2023-08-06T02:17:36.062Z,3.10
2023-08-06T02:20:10.195Z,3.00
2023-08-06T02:22:37.402Z,2.75
2023-08-06T02:25:11.375Z,2.85
2023-08-06T02:27:39.413Z,2.45
2023-08-06T02:30:07.437Z,3.22
2023-08-06T02:32:43.790Z,3.38
2023-08-06T02:35:11.094Z,3.40
2023-08-06T02:37:45.206Z,3.30
2023-08-06T02:40:12.853Z,4.10
2023-08-06T02:45:20.277Z,3.10
2023-08-06T02:47:54.289Z,3.88
2023-08-06T02:50:28.202Z,4.10
2023-08-06T02:53:02.390Z,3.70
2023-08-06T02:55:29.587Z,3.75
2023-08-06T02:57:56.739Z,3.83
2023-08-06T03:00:30.413Z,3.92
2023-08-06T03:02:57.783Z,4.70
2023-08-06T03:05:25.013Z,3.83
2023-08-06T03:07:58.269Z,3.58
2023-08-06T03:10:25.618Z,3.88
2023-08-06T03:12:59.387Z,3.55
2023-08-06T03:15:26.733Z,4.07
2023-08-06T03:17:54.056Z,3.58
2023-08-06T03:20:27.334Z,3.97
2023-08-06T03:22:54.632Z,4.03
2023-08-06T03:25:28.380Z,4.18
2023-08-06T03:27:55.592Z,4.68
2023-08-06T03:30:22.732Z,4.47
2023-08-06T03:32:56.518Z,4.20
2023-08-06T03:35:23.823Z,3.47
2023-08-06T03:37:57.322Z,2.00
2023-08-06T03:40:24.556Z,3.13
2023-08-06T03:43:11.391Z,4.07
2023-08-06T03:45:38.652Z,3.80
2023-08-06T03:48:05.987Z,3.55
2023-08-06T03:50:39.446Z,4.65
2023-08-06T03:53:06.620Z,3.90
2023-08-06T03:55:40.397Z,4.43
2023-08-06T03:58:07.696Z,2.50
2023-08-06T04:00:34.883Z,3.75
2023-08-06T04:03:08.342Z,3.40
2023-08-06T04:05:35.597Z,3.55
2023-08-06T04:08:09.420Z,3.05
2023-08-06T04:10:36.664Z,3.45
2023-08-06T04:13:03.811Z,3.50
2023-08-06T04:15:37.236Z,3.83
2023-08-06T04:18:04.844Z,3.80
2023-08-06T04:23:07.998Z,3.40
2023-08-06T04:25:35.104Z,5.22
2023-08-06T04:28:09.311Z,3.42
2023-08-06T04:30:36.691Z,2.72
2023-08-06T04:33:10.286Z,2.58
2023-08-06T04:35:37.551Z,4.07
2023-08-06T04:38:04.781Z,3.92
2023-08-06T04:40:38.256Z,3.30
2023-08-06T04:43:12.324Z,4.55
2023-08-06T04:45:46.468Z,5.05
2023-08-06T04:48:13.714Z,4.85
2023-08-06T04:50:44.936Z,4.82
2023-08-06T04:53:19.462Z,3.22
2023-08-06T04:55:46.824Z,3.28
2023-08-06T04:58:14.491Z,3.75
2023-08-06T05:03:22.323Z,3.80
2023-08-06T05:05:56.579Z,3.80
2023-08-06T05:08:23.901Z,3.67
2023-08-06T05:10:51.080Z,3.88
2023-08-06T05:13:24.259Z,4.25
2023-08-06T05:15:51.512Z,4.22
2023-08-06T05:18:27.124Z,3.80
2023-08-06T05:20:54.335Z,3.40
2023-08-06T05:23:21.532Z,3.40
2023-08-06T05:25:55.456Z,3.20
2023-08-06T05:28:22.676Z,3.42
2023-08-06T05:30:56.432Z,3.58
2023-08-06T05:33:23.647Z,2.90
2023-08-06T05:35:51.790Z,3.25
2023-08-06T05:38:25.295Z,2.63
2023-08-06T05:40:52.569Z,3.20
2023-08-06T05:43:26.467Z,3.25
2023-08-06T05:46:00.364Z,2.85
2023-08-06T05:48:35.416Z,2.53
2023-08-06T05:51:04.198Z,2.85
2023-08-06T05:53:31.441Z,2.83
2023-08-06T05:56:06.294Z,2.78
2023-08-06T05:58:33.658Z,2.38
2023-08-06T06:01:07.485Z,2.72
2023-08-06T06:03:34.876Z,2.40
2023-08-06T06:06:03.162Z,2.40
2023-08-06T06:08:37.303Z,2.60
2023-08-06T06:11:04.587Z,2.50
2023-08-06T06:13:39.447Z,2.42
2023-08-06T06:16:06.780Z,2.45
2023-08-06T06:18:34.452Z,2.50
2023-08-06T06:21:08.286Z,2.20
2023-08-06T06:23:35.519Z,2.00
2023-08-06T06:26:09.442Z,2.28
2023-08-06T06:28:36.858Z,2.40
2023-08-06T06:31:04.864Z,2.25
2023-08-06T06:33:38.673Z,2.10
2023-08-06T06:36:06.069Z,2.13
2023-08-06T06:38:33.297Z,2.55
2023-08-06T06:41:07.413Z,2.20
2023-08-06T06:43:54.302Z,2.33
2023-08-06T06:46:28.463Z,2.25
2023-08-06T06:48:55.713Z,2.28
2023-08-06T06:51:22.862Z,2.30
2023-08-06T06:53:56.301Z,2.63
2023-08-06T06:56:23.562Z,2.35
2023-08-06T06:58:57.287Z,2.00
2023-08-06T07:01:24.558Z,2.08
2023-08-06T07:03:58.523Z,2.35
2023-08-06T07:06:25.830Z,2.17
2023-08-06T07:08:53.164Z,2.25
2023-08-06T07:11:26.581Z,1.92
2023-08-06T07:13:59.185Z,2.30
2023-08-06T07:16:33.658Z,2.10
2023-08-06T07:19:01.221Z,2.40
2023-08-06T07:24:02.315Z,2.05
2023-08-06T07:26:29.505Z,2.00
2023-08-06T07:29:04.621Z,2.10
2023-08-06T07:31:32.062Z,2.03
2023-08-06T07:33:59.215Z,1.88
2023-08-06T07:36:33.327Z,2.15
2023-08-06T07:39:00.603Z,1.98
2023-08-06T07:41:34.453Z,2.05
2023-08-06T07:44:21.334Z,2.38
2023-08-06T07:47:15.372Z,2.20
2023-08-06T07:50:02.565Z,2.20
2023-08-06T07:52:56.366Z,2.08
2023-08-06T07:55:50.325Z,2.03
2023-08-06T07:58:44.835Z,2.35
2023-08-06T08:01:32.024Z,2.03
2023-08-06T08:04:25.473Z,2.17
2023-08-06T08:07:12.651Z,2.60
2023-08-06T08:10:06.462Z,2.00
2023-08-06T08:12:53.750Z,2.20
2023-08-06T08:15:47.500Z,2.65
2023-08-06T08:18:34.720Z,1.92
2023-08-06T08:21:28.426Z,1.80
2023-08-06T08:24:22.795Z,1.90
2023-08-06T08:27:37.340Z,2.13
2023-08-06T08:30:31.343Z,2.15
2023-08-06T08:33:18.553Z,2.10
2023-08-06T08:36:13.361Z,2.22
2023-08-06T08:39:00.447Z,2.35
2023-08-06T08:41:56.798Z,2.10
2023-08-06T08:45:03.368Z,1.90
2023-08-06T08:47:57.402Z,1.83
2023-08-06T08:50:44.623Z,2.67
2023-08-06T08:53:39.549Z,2.30
2023-08-06T08:56:27.178Z,2.00
2023-08-06T08:59:21.365Z,2.20
2023-08-06T09:02:19.329Z,2.05
2023-08-06T09:05:06.865Z,2.40
2023-08-06T09:08:03.538Z,1.77
2023-08-06T09:10:50.871Z,2.28
2023-08-06T09:13:44.835Z,2.15
2023-08-06T09:16:32.174Z,1.65
2023-08-06T09:19:34.461Z,2.65
2023-08-06T09:22:21.783Z,2.13
2023-08-06T09:25:15.484Z,2.25
2023-08-06T09:28:02.787Z,2.00
2023-08-06T09:30:57.403Z,1.90
2023-08-06T09:33:51.650Z,2.28
2023-08-06T09:36:38.787Z,1.70
2023-08-06T09:39:40.489Z,2.38
2023-08-06T09:42:27.585Z,1.70
2023-08-06T09:45:14.362Z,2.05
2023-08-06T09:48:01.509Z,1.85
2023-08-06T09:50:38.505Z,1.63
2023-08-06T09:53:06.314Z,2.20
2023-08-06T09:55:47.522Z,1.90
2023-08-06T09:58:15.568Z,2.00
2023-08-06T10:00:43.069Z,1.80
2023-08-06T10:05:46.321Z,2.42
2023-08-06T10:08:15.403Z,2.10
2023-08-06T10:10:49.539Z,1.75
2023-08-06T10:13:16.931Z,1.88
2023-08-06T10:18:19.410Z,1.33
2023-08-06T10:20:53.649Z,1.50
2023-08-06T10:23:22.281Z,1.92
2023-08-06T10:26:03.375Z,1.80
2023-08-06T10:28:44.374Z,1.55
2023-08-06T10:31:31.554Z,1.60
2023-08-06T10:34:25.381Z,1.48
2023-08-06T10:37:15.765Z,1.55
2023-08-06T10:40:16.556Z,1.40
2023-08-06T10:43:03.698Z,1.20
2023-08-06T10:46:04.519Z,1.58
2023-08-06T10:48:58.340Z,1.45
2023-08-06T10:51:53.075Z,1.33
2023-08-06T10:54:40.353Z,1.67
2023-08-06T10:57:37.538Z,1.70
2023-08-06T11:00:28.585Z,1.50
2023-08-06T11:03:22.445Z,1.55
2023-08-06T11:06:12.718Z,1.40
2023-08-06T11:09:07.564Z,1.88
2023-08-06T11:11:55.066Z,1.58
2023-08-06T11:14:49.399Z,1.40
2023-08-06T11:17:36.551Z,1.70
2023-08-06T11:20:31.528Z,1.58
2023-08-06T11:23:18.921Z,1.52
2023-08-06T11:26:15.067Z,1.85
2023-08-06T11:29:10.454Z,1.48
2023-08-06T11:31:58.185Z,1.50
2023-08-06T11:34:51.734Z,1.70
2023-08-06T11:37:42.343Z,1.27
2023-08-06T11:40:39.453Z,1.40
2023-08-06T11:43:27.449Z,1.63
2023-08-06T11:46:28.561Z,1.65
2023-08-06T11:49:19.921Z,1.42
2023-08-06T11:52:13.411Z,1.33
2023-08-06T11:55:00.508Z,1.60
2023-08-06T11:58:01.561Z,1.65
2023-08-06T12:00:48.670Z,1.48
2023-08-06T12:03:42.609Z,1.50
2023-08-06T12:06:29.725Z,1.38
2023-08-06T12:09:23.595Z,1.35
2023-08-06T12:12:10.766Z,1.48
2023-08-06T12:15:04.566Z,1.58
2023-08-06T12:17:51.720Z,1.52
2023-08-06T12:20:45.569Z,1.50
2023-08-06T12:23:32.673Z,1.30
2023-08-06T12:26:26.596Z,1.73
2023-08-06T12:29:13.742Z,1.65
2023-08-06T12:32:07.565Z,1.80
2023-08-06T12:34:54.893Z,1.70
2023-08-06T12:37:48.466Z,1.65
2023-08-06T12:40:38.608Z,1.50
2023-08-06T12:43:33.432Z,1.58
2023-08-06T12:46:27.383Z,1.95
2023-08-06T12:49:22.604Z,1.90
2023-08-06T12:51:50.549Z,1.92
2023-08-06T12:54:21.171Z,1.58
2023-08-06T12:56:56.456Z,1.90
2023-08-06T12:59:24.419Z,2.05
2023-08-06T13:01:58.555Z,1.55
2023-08-06T13:04:26.021Z,1.50
2023-08-06T13:10:06.791Z,1.77
2023-08-06T13:13:00.480Z,1.90
2023-08-06T13:15:47.663Z,1.67
2023-08-06T13:18:41.599Z,1.70
2023-08-06T13:21:28.931Z,1.80
2023-08-06T13:24:22.600Z,1.77
2023-08-06T13:27:09.941Z,1.65
2023-08-06T13:30:03.534Z,1.90
2023-08-06T13:32:50.818Z,1.90
2023-08-06T13:35:44.620Z,1.90
2023-08-06T13:38:31.859Z,1.80
2023-08-06T13:41:25.824Z,1.73
2023-08-06T13:44:19.521Z,1.60
2023-08-06T13:47:22.580Z,1.48
2023-08-06T13:50:28.055Z,1.50
2023-08-06T13:53:22.517Z,1.67
2023-08-06T13:56:09.683Z,1.92
2023-08-06T13:59:03.617Z,1.92
2023-08-06T14:01:52.454Z,1.80
2023-08-06T14:04:47.479Z,1.80
2023-08-06T14:07:34.674Z,1.67
2023-08-06T14:10:28.636Z,1.83
2023-08-06T14:13:15.916Z,1.73
2023-08-06T14:16:09.748Z,1.80
2023-08-06T14:18:56.916Z,1.40
2023-08-06T14:21:51.878Z,1.60
2023-08-06T14:24:39.607Z,1.50
2023-08-06T14:27:33.804Z,1.73
2023-08-06T14:30:21.244Z,1.80
2023-08-06T14:33:25.351Z,1.40
2023-08-06T14:36:13.743Z,1.55
2023-08-06T14:39:07.465Z,1.20
2023-08-06T14:41:54.728Z,1.60
2023-08-06T14:44:55.786Z,1.35
2023-08-06T14:47:49.595Z,1.60
2023-08-06T14:50:43.732Z,1.70
2023-08-06T14:53:30.936Z,1.42
2023-08-06T14:56:24.530Z,1.42
2023-08-06T14:59:11.777Z,1.70
2023-08-06T15:02:05.622Z,1.40
2023-08-06T15:04:52.989Z,1.80
2023-08-06T15:07:46.486Z,1.40
2023-08-06T15:10:27.513Z,1.90
2023-08-06T15:12:55.713Z,1.92
2023-08-06T15:18:00.236Z,2.00
2023-08-06T15:20:27.463Z,2.05
2023-08-06T15:23:01.500Z,2.10
2023-08-06T15:25:28.961Z,1.80
2023-08-06T15:28:02.554Z,2.08
2023-08-06T15:30:29.989Z,1.92
2023-08-06T15:32:57.387Z,1.92
2023-08-06T15:37:57.671Z,2.00
2023-08-06T15:40:31.641Z,1.88
2023-08-06T15:42:58.953Z,1.70
2023-08-06T15:45:39.986Z,2.20
2023-08-06T15:48:07.353Z,2.10
2023-08-06T15:50:34.518Z,2.25
2023-08-06T15:53:08.540Z,2.00
2023-08-06T15:55:38.629Z,1.73
2023-08-06T15:58:12.651Z,2.10
2023-08-06T16:00:40.024Z,2.10
2023-08-06T16:03:07.396Z,2.22
2023-08-06T16:05:42.535Z,2.63
2023-08-06T16:08:09.933Z,2.10
2023-08-06T16:10:43.748Z,1.90
2023-08-06T16:13:11.055Z,1.95
2023-08-06T16:15:44.720Z,1.83
2023-08-06T16:18:11.951Z,2.03
2023-08-06T16:20:43.758Z,2.00
2023-08-06T16:23:18.654Z,2.42
2023-08-06T16:25:48.538Z,2.33
2023-08-06T16:28:15.696Z,2.20
2023-08-06T16:30:55.813Z,2.17
2023-08-06T16:33:23.076Z,2.22
2023-08-06T16:35:50.212Z,2.10
2023-08-06T16:38:24.517Z,2.30
2023-08-06T16:40:57.880Z,2.38
2023-08-06T16:43:31.779Z,2.28
2023-08-06T16:46:11.907Z,2.60
2023-08-06T16:48:45.682Z,2.25
2023-08-06T16:51:14.296Z,2.50
2023-08-06T16:53:41.478Z,3.08
2023-08-06T16:56:15.866Z,2.88
2023-08-06T16:58:43.571Z,3.05
2023-08-06T17:01:10.789Z,3.00
2023-08-06T17:03:45.627Z,3.05
2023-08-06T17:06:15.718Z,2.88
2023-08-06T17:08:42.858Z,2.90
2023-08-06T17:11:16.532Z,2.97
2023-08-06T17:14:10.559Z,2.80
2023-08-06T17:16:58.211Z,2.88
2023-08-06T17:19:52.609Z,2.90
2023-08-06T17:22:39.719Z,3.30
2023-08-06T17:25:33.784Z,3.33
2023-08-06T17:28:20.884Z,3.30
2023-08-06T17:31:14.834Z,3.03
2023-08-06T17:34:02.168Z,3.05
2023-08-06T17:36:35.676Z,3.35
2023-08-06T17:39:03.134Z,3.75
2023-08-06T17:41:30.362Z,3.38
2023-08-06T17:44:04.725Z,3.53
2023-08-06T17:46:38.645Z,3.50
2023-08-06T17:49:12.713Z,3.83
2023-08-06T17:51:40.006Z,3.35
2023-08-06T17:54:07.161Z,4.00
2023-08-06T17:56:40.556Z,4.45
2023-08-06T17:59:07.751Z,4.07
2023-08-06T18:01:41.898Z,4.68
2023-08-06T18:04:29.098Z,4.75
2023-08-06T18:07:22.680Z,5.22
2023-08-06T18:09:56.677Z,5.13
2023-08-06T18:12:23.791Z,5.63
2023-08-06T18:14:51.328Z,5.03
2023-08-06T18:17:25.616Z,5.25
2023-08-06T18:19:52.952Z,5.10
2023-08-06T18:22:20.212Z,5.65
2023-08-06T18:24:53.567Z,4.53
2023-08-06T18:27:20.947Z,5.50
2023-08-06T18:29:54.742Z,4.90
2023-08-06T18:32:22.460Z,4.93
2023-08-06T18:34:49.650Z,5.35
2023-08-06T18:37:43.660Z,4.60
2023-08-06T18:40:31.195Z,4.95
2023-08-06T18:43:24.742Z,5.05
2023-08-06T18:46:18.858Z,4.25
2023-08-06T18:49:18.643Z,4.40
2023-08-06T18:52:06.141Z,4.40
2023-08-06T18:54:59.720Z,4.30
2023-08-06T18:57:46.938Z,4.05
2023-08-06T19:00:40.968Z,4.57
2023-08-06T19:03:28.571Z,4.03
2023-08-06T19:06:25.572Z,4.03
2023-08-06T19:09:12.831Z,4.75
2023-08-06T19:12:06.770Z,3.78
2023-08-06T19:14:54.020Z,3.72
2023-08-06T19:17:47.781Z,4.60
2023-08-06T19:20:35.021Z,4.35
2023-08-06T19:23:31.740Z,4.25
2023-08-06T19:26:25.860Z,3.65
2023-08-06T19:29:19.765Z,4.20
2023-08-06T19:32:07.246Z,3.40
2023-08-06T19:35:01.703Z,3.78
2023-08-06T19:37:48.991Z,3.65
2023-08-06T19:40:42.609Z,4.05
2023-08-06T19:43:36.619Z,3.63
2023-08-06T19:46:30.687Z,4.10
2023-08-06T19:49:24.755Z,4.53
2023-08-06T19:52:11.873Z,4.43
2023-08-06T19:55:05.770Z,4.40
2023-08-06T19:57:52.984Z,3.95
2023-08-06T20:00:46.608Z,4.18
2023-08-06T20:03:34.025Z,3.40
2023-08-06T20:06:28.861Z,3.70
2023-08-06T20:09:16.053Z,3.65
2023-08-06T20:12:09.731Z,3.65
2023-08-06T20:14:56.812Z,3.53
2023-08-06T20:17:50.705Z,3.70
2023-08-06T20:20:38.020Z,3.88
2023-08-06T20:23:32.928Z,3.38
2023-08-06T20:26:20.078Z,3.72
2023-08-06T20:29:13.626Z,3.17
2023-08-06T20:32:07.819Z,3.83
2023-08-06T20:35:01.759Z,3.60
2023-08-06T20:37:56.247Z,3.63
2023-08-06T20:40:43.860Z,4.05
2023-08-06T20:43:37.755Z,3.78
2023-08-06T20:46:31.695Z,4.55
2023-08-06T20:49:25.632Z,3.95
2023-08-06T20:52:12.897Z,4.38
2023-08-06T20:55:06.783Z,4.43
2023-08-06T20:57:54.174Z,4.55
2023-08-06T21:00:47.654Z,4.55
2023-08-06T21:03:41.630Z,4.00
2023-08-06T21:06:35.627Z,4.50
2023-08-06T21:09:29.643Z,3.85
2023-08-06T21:12:23.631Z,4.63
2023-08-06T21:15:17.760Z,3.97
2023-08-06T21:18:05.461Z,4.00
2023-08-06T21:21:04.715Z,4.20
2023-08-06T21:23:58.785Z,4.13
2023-08-06T21:26:52.650Z,4.15
2023-08-06T21:29:39.766Z,4.75
2023-08-06T21:32:33.788Z,5.00
2023-08-06T21:35:20.894Z,4.47
2023-08-06T21:38:14.887Z,4.65
2023-08-06T21:41:01.969Z,4.65
2023-08-06T21:43:55.776Z,4.55
2023-08-06T21:47:02.775Z,5.40
2023-08-06T21:49:57.003Z,5.63
2023-08-06T21:52:44.175Z,6.97
2023-08-06T21:55:37.779Z,5.03
2023-08-06T21:58:24.957Z,4.97
2023-08-06T22:01:18.892Z,4.68
2023-08-06T22:04:06.037Z,4.85
2023-08-06T22:06:59.822Z,5.05
2023-08-06T22:09:53.672Z,4.60
2023-08-06T22:12:48.038Z,4.93
2023-08-06T22:15:35.161Z,4.35
2023-08-06T22:18:30.662Z,4.28
2023-08-06T22:21:18.052Z,5.00
2023-08-06T22:24:11.770Z,4.80
2023-08-06T22:26:58.855Z,4.65
2023-08-06T22:29:53.005Z,4.60
2023-08-06T22:32:40.168Z,4.88
2023-08-06T22:35:33.820Z,6.00
2023-08-06T22:38:27.703Z,5.10
2023-08-06T22:41:21.820Z,5.95
2023-08-06T22:44:08.917Z,4.72
2023-08-06T22:47:08.754Z,4.65
2023-08-06T22:50:05.283Z,4.95
2023-08-06T22:53:01.867Z,5.35
2023-08-06T22:56:07.668Z,4.10
2023-08-06T22:59:03.679Z,4.88
2023-08-06T23:01:50.891Z,4.65
2023-08-06T23:04:45.095Z,4.60
2023-08-06T23:07:34.840Z,4.22
2023-08-06T23:10:28.856Z,4.10
2023-08-06T23:13:16.031Z,4.05
2023-08-06T23:15:49.854Z,4.07
2023-08-06T23:18:17.166Z,4.63
2023-08-06T23:20:45.560Z,4.28
2023-08-06T23:23:19.828Z,3.78
2023-08-06T23:25:47.269Z,4.35
2023-08-06T23:28:14.421Z,3.92
2023-08-06T23:30:51.689Z,3.80
2023-08-06T23:33:18.928Z,4.25
2023-08-06T23:35:52.686Z,3.72
2023-08-06T23:38:19.874Z,3.80
2023-08-06T23:40:47.006Z,3.63
2023-08-06T23:43:20.855Z,3.92
2023-08-06T23:45:56.907Z,3.08
2023-08-06T23:48:30.993Z,3.10
2023-08-06T23:50:58.136Z,3.10
2023-08-06T23:53:25.265Z,2.92
2023-08-06T23:55:58.680Z,3.13
2023-08-06T23:58:26.039Z,2.90
